Olympic National Park, WA

04:20 PM PST am 24. November 2014 (GMT -0800)
Whidbey Island Naval Air Station | Change Station
CLOSE
Current Station
Flughafen
Location: Whidbey Island,
Höhe: 46 ft
Wetterstationen in der Umgebung

Höhe 46 ft 48.35 °N, 122.66 °W | Updated 24 minutes ago

Regen
Regen
50 °F
gefühlte 50 °F
N
18
Wind Wechselnd Wind aus Südost

Heute
Max. -- | schwach -- °F
--% Regenrisiko
Gestern
Max. -- | schwach -- °F
Precip. -- inch
7:33 AM 4:27 PM
Erstes Viertel, 8% visible
Druck 30.14 inch
Sichtweite 8.0 Meilen
Wolken Teils Wolkig 1300 ft
Teils Wolkig 2500 ft
Bedeckt 6500 ft
Taupunkt 46 °F
Feuchtigkeit 86%
Regen 0.06 inch
Schneehöhe Nicht verfügbar..
UV 0 von 12
Pollen .10 von 12
Luftqualität Nicht verfügbar..
Flu Activity Nicht verfügbar..
METAR KNUW 242356Z 13016KT 8SM -RA SCT013 SCT025 OVC065 10/08 A3013 RMK AO2 SLP207 P0005 60006 T01000078 10111 20100 58020 $

More Conditions Fewer Conditions

Druck 30.14 inch
Sichtweite 8.0 Meilen
Wolken Teils Wolkig 1300 ft
Teils Wolkig 2500 ft
Bedeckt 6500 ft
Taupunkt 46 °F
Feuchtigkeit 86%
Regen 0.06 inch
Schneehöhe Nicht verfügbar..
UV 0 von 12
Pollen .10 von 12
Luftqualität Nicht verfügbar..
Flu Activity Nicht verfügbar..
METAR KNUW 242356Z 13016KT 8SM -RA SCT013 SCT025 OVC065 10/08 A3013 RMK AO2 SLP207 P0005 60006 T01000078 10111 20100 58020 $

More Conditions Fewer Conditions

10-Day Weather Forecast

Almanac

Astronomie

Nov. 24, 2014 Aufgang Untergang
Genaue Zeit
Bürgerliche Dämmerung
Nautische Dämmerung
Astronomische Dämmerung
Mond
Länge des sichtbaren Lichts
Tageslänge
Tomorrow will be .
, % of the Moon is Illuminated

Heutige Rekorde

State Highs State Lows

Community

WunderPhotos

Upload Photos

1,773,442 Fotos hochgeladen!

WunderBlogs® & News

Nearby

Luftqualität

  Luftqualität LQ Index Schadstoff
Not available.

Schneehöhe

Station Depth Höhe

Erdbebenaktivität

Stadt Distance Mag. Time & Date
Minimum magnitude displayed is 2.5.

küstennahe Wassertemperaturen

Ort Temperatur

Wetterstationen in der Umgebung